createdAt,value
2019-02-02T00:02:38.638Z,20.39
2019-02-02T00:07:42.427Z,20.44
2019-02-02T00:12:46.332Z,20.41
2019-02-02T00:17:50.138Z,20.41
2019-02-02T00:22:53.953Z,20.42
2019-02-02T00:27:57.781Z,20.44
2019-02-02T00:33:01.586Z,20.41
2019-02-02T00:38:05.467Z,20.41
2019-02-02T00:43:09.256Z,20.39
2019-02-02T00:48:13.122Z,20.39
2019-02-02T00:53:17.012Z,20.36
2019-02-02T00:58:20.868Z,20.32
2019-02-02T01:03:24.681Z,20.33
2019-02-02T01:08:28.510Z,20.34
2019-02-02T01:13:32.381Z,20.34
2019-02-02T01:18:36.188Z,20.30
2019-02-02T01:23:40.092Z,20.32
2019-02-02T01:28:43.892Z,20.30
2019-02-02T01:33:47.693Z,20.30
2019-02-02T01:38:51.488Z,20.28
2019-02-02T01:43:55.297Z,20.32
2019-02-02T01:48:59.070Z,20.32
2019-02-02T01:54:02.864Z,20.23
2019-02-02T01:59:06.726Z,20.23
2019-02-02T02:04:10.550Z,20.21
2019-02-02T02:09:14.325Z,20.25
2019-02-02T02:14:18.120Z,20.19
2019-02-02T02:19:21.915Z,20.14
2019-02-02T02:24:25.783Z,20.20
2019-02-02T02:29:29.562Z,20.13
2019-02-02T02:34:33.362Z,20.16
2019-02-02T02:39:37.206Z,20.14
2019-02-02T02:44:40.995Z,20.09
2019-02-02T02:49:44.790Z,20.06
2019-02-02T02:54:48.639Z,20.10
2019-02-02T02:59:52.493Z,20.08
2019-02-02T03:04:56.265Z,20.06
2019-02-02T03:10:00.102Z,20.09
2019-02-02T03:15:04.777Z,20.09
2019-02-02T03:20:09.061Z,20.08
2019-02-02T03:25:15.192Z,20.08
2019-02-02T03:30:19.827Z,20.04
2019-02-02T03:35:23.720Z,20.04
2019-02-02T03:40:27.554Z,20.04
2019-02-02T03:45:31.421Z,19.96
2019-02-02T03:50:35.237Z,20.04
2019-02-02T03:55:39.026Z,19.93
2019-02-02T04:00:42.822Z,19.93
2019-02-02T04:05:46.706Z,19.93
2019-02-02T04:10:50.593Z,19.98
2019-02-02T04:15:54.351Z,19.98
2019-02-02T04:20:58.153Z,19.95
2019-02-02T04:26:01.901Z,19.95
2019-02-02T04:31:05.991Z,19.94
2019-02-02T04:36:09.781Z,19.94
2019-02-02T04:41:13.615Z,19.89
2019-02-02T04:46:17.497Z,19.82
2019-02-02T04:51:21.457Z,19.85
2019-02-02T04:56:25.274Z,19.84
2019-02-02T05:01:29.051Z,19.85
2019-02-02T05:06:32.885Z,19.82
2019-02-02T05:11:36.643Z,19.82
2019-02-02T05:16:40.451Z,19.83
2019-02-02T05:21:44.194Z,19.79
2019-02-02T05:26:47.970Z,19.81
2019-02-02T05:31:51.814Z,19.72
2019-02-02T05:36:55.653Z,19.75
2019-02-02T05:41:59.420Z,19.79
2019-02-02T05:47:03.236Z,19.77
2019-02-02T05:52:07.090Z,19.73
2019-02-02T05:57:10.861Z,19.65
2019-02-02T06:02:14.616Z,19.65
2019-02-02T06:07:18.401Z,19.73
2019-02-02T06:12:22.210Z,19.73
2019-02-02T06:17:25.960Z,19.73
2019-02-02T06:22:29.758Z,19.69
2019-02-02T06:27:33.591Z,19.72
2019-02-02T06:32:37.428Z,19.72
2019-02-02T06:37:41.227Z,19.83
2019-02-02T06:42:45.159Z,19.79
2019-02-02T06:47:49.048Z,19.79
2019-02-02T06:52:52.852Z,19.78
2019-02-02T06:57:56.621Z,19.78
2019-02-02T07:03:00.382Z,19.78
2019-02-02T07:08:04.236Z,19.78
2019-02-02T07:13:08.022Z,19.81
2019-02-02T07:18:11.880Z,19.73
2019-02-02T07:23:15.711Z,19.73
2019-02-02T07:28:19.470Z,19.74
2019-02-02T07:33:23.236Z,19.86
2019-02-02T07:38:27.046Z,19.87
2019-02-02T07:43:30.814Z,19.87
2019-02-02T07:48:34.720Z,19.88
2019-02-02T07:53:38.609Z,19.87
2019-02-02T07:58:42.404Z,19.87
2019-02-02T08:03:46.295Z,18.13
2019-02-02T08:08:50.117Z,18.13
2019-02-02T08:13:53.916Z,18.14
2019-02-02T08:18:58.005Z,19.63
2019-02-02T08:24:01.798Z,19.63
2019-02-02T08:29:05.622Z,20.78
2019-02-02T08:34:09.435Z,20.78
2019-02-02T08:39:13.235Z,21.09
2019-02-02T08:44:17.028Z,21.09
2019-02-02T08:49:20.811Z,20.81
2019-02-02T08:54:24.614Z,20.69
2019-02-02T08:59:28.439Z,20.48
2019-02-02T09:04:32.368Z,20.22
2019-02-02T09:09:36.261Z,20.42
2019-02-02T09:14:40.061Z,20.23
2019-02-02T09:19:43.956Z,20.25
2019-02-02T09:24:48.184Z,20.21
2019-02-02T09:29:51.970Z,20.21
2019-02-02T09:34:55.758Z,20.34
2019-02-02T09:39:59.799Z,20.65
2019-02-02T09:45:03.745Z,20.64
2019-02-02T09:50:09.521Z,20.58
2019-02-02T09:55:15.089Z,20.39
2019-02-02T10:00:21.190Z,20.39
2019-02-02T10:05:25.021Z,20.35
2019-02-02T10:10:30.451Z,20.22
2019-02-02T10:15:34.235Z,20.10
2019-02-02T10:20:38.213Z,20.14
2019-02-02T10:25:42.165Z,20.17
2019-02-02T10:30:46.035Z,20.17
2019-02-02T10:35:49.905Z,20.17
2019-02-02T10:40:53.724Z,20.41
2019-02-02T10:45:57.537Z,20.69
2019-02-02T10:51:01.323Z,20.68
2019-02-02T10:56:05.125Z,20.68
2019-02-02T11:01:08.908Z,20.69
2019-02-02T11:06:12.917Z,20.68
2019-02-02T11:11:16.795Z,20.67
2019-02-02T11:16:20.640Z,20.54
2019-02-02T11:21:24.616Z,20.54
2019-02-02T11:26:29.555Z,20.60
2019-02-02T11:31:33.518Z,20.69
2019-02-02T11:36:37.312Z,20.61
2019-02-02T11:41:41.119Z,20.66
2019-02-02T11:46:45.101Z,20.52
2019-02-02T11:51:48.914Z,20.72
2019-02-02T11:56:52.717Z,20.72
2019-02-02T12:01:56.505Z,20.81
2019-02-02T12:07:52.477Z,20.97
2019-02-02T12:12:56.423Z,20.91
2019-02-02T12:18:00.205Z,20.69
2019-02-02T12:23:04.040Z,20.73
2019-02-02T12:28:09.309Z,20.30
2019-02-02T12:33:13.643Z,20.41
2019-02-02T12:38:17.477Z,20.53
2019-02-02T12:43:21.578Z,20.54
2019-02-02T12:48:25.431Z,20.60
2019-02-02T12:53:29.633Z,20.53
2019-02-02T12:58:33.508Z,20.58
2019-02-02T13:03:37.444Z,20.62
2019-02-02T13:08:41.247Z,20.66
2019-02-02T13:13:45.426Z,20.66
2019-02-02T13:18:49.355Z,20.64
2019-02-02T13:23:53.273Z,20.68
2019-02-02T13:28:57.676Z,20.66
2019-02-02T13:34:01.820Z,20.64
2019-02-02T13:39:09.560Z,20.61
2019-02-02T13:44:13.535Z,20.49
2019-02-02T13:49:17.513Z,20.49
2019-02-02T13:54:21.583Z,20.47
2019-02-02T13:59:25.572Z,20.45
2019-02-02T14:04:29.663Z,20.44
2019-02-02T14:09:33.448Z,20.51
2019-02-02T14:14:37.373Z,20.51
2019-02-02T14:19:41.316Z,20.49
2019-02-02T14:24:45.106Z,20.49
2019-02-02T14:29:49.068Z,20.64
2019-02-02T14:34:53.337Z,20.69
2019-02-02T14:39:57.154Z,20.69
2019-02-02T14:45:01.272Z,20.65
2019-02-02T14:50:08.119Z,20.73
2019-02-02T14:55:15.197Z,20.45
2019-02-02T15:00:20.959Z,20.45
2019-02-02T15:05:24.838Z,20.38
2019-02-02T15:10:28.808Z,20.35
2019-02-02T15:15:32.868Z,20.35
2019-02-02T15:20:37.727Z,20.41
2019-02-02T15:25:51.246Z,20.55
2019-02-02T15:30:55.481Z,20.72
2019-02-02T15:35:59.403Z,20.72
2019-02-02T15:41:03.215Z,20.66
2019-02-02T15:46:07.273Z,20.66
2019-02-02T15:51:11.330Z,20.52
2019-02-02T15:56:15.606Z,20.47
2019-02-02T16:01:19.470Z,20.47
2019-02-02T16:06:23.379Z,20.36
2019-02-02T16:11:27.189Z,20.30
2019-02-02T16:16:31.245Z,20.32
2019-02-02T16:21:35.093Z,20.28
2019-02-02T16:26:38.888Z,20.28
2019-02-02T16:31:42.915Z,20.48
2019-02-02T16:36:46.883Z,20.63
2019-02-02T16:41:50.847Z,20.63
2019-02-02T16:46:54.768Z,20.58
2019-02-02T16:51:58.998Z,20.58
2019-02-02T16:57:03.400Z,20.49
2019-02-02T17:02:07.196Z,20.38
2019-02-02T17:07:11.183Z,20.47
2019-02-02T17:12:15.303Z,20.91
2019-02-02T17:17:19.271Z,20.91
2019-02-02T17:22:23.075Z,21.07
2019-02-02T17:27:27.128Z,21.23
2019-02-02T17:32:31.376Z,21.30
2019-02-02T17:37:35.380Z,21.36
2019-02-02T17:42:39.201Z,21.37
2019-02-02T17:47:43.028Z,21.37
2019-02-02T17:52:47.577Z,21.36
2019-02-02T17:57:51.399Z,21.53
2019-02-02T18:02:55.295Z,21.62
2019-02-02T18:07:59.412Z,21.62
2019-02-02T18:13:03.413Z,21.53
2019-02-02T18:18:07.537Z,21.56
2019-02-02T18:23:11.632Z,21.57
2019-02-02T18:28:16.172Z,21.53
2019-02-02T18:33:20.274Z,21.49
2019-02-02T18:38:24.219Z,21.46
2019-02-02T18:43:28.986Z,21.51
2019-02-02T18:48:32.793Z,21.52
2019-02-02T18:53:36.698Z,21.49
2019-02-02T18:58:41.324Z,21.59
2019-02-02T19:03:46.594Z,21.55
2019-02-02T19:08:51.673Z,21.49
2019-02-02T19:13:56.704Z,21.49
2019-02-02T19:19:02.708Z,21.47
2019-02-02T19:24:09.227Z,21.52
2019-02-02T19:29:15.748Z,21.56
2019-02-02T19:34:22.653Z,21.52
2019-02-02T19:39:29.281Z,21.58
2019-02-02T19:44:35.431Z,21.58
2019-02-02T19:49:42.268Z,21.64
2019-02-02T19:54:50.143Z,21.72
2019-02-02T19:59:57.503Z,21.76
2019-02-02T20:05:03.749Z,21.73
2019-02-02T20:10:12.817Z,21.63
2019-02-02T20:15:21.885Z,21.53
2019-02-02T20:20:30.155Z,21.53
2019-02-02T20:25:37.280Z,21.28
2019-02-02T20:30:45.052Z,21.22
2019-02-02T20:35:52.958Z,21.11
2019-02-02T20:41:01.430Z,21.11
2019-02-02T20:46:07.789Z,20.94
2019-02-02T20:51:13.775Z,20.89
2019-02-02T20:56:20.430Z,20.87
2019-02-02T21:01:26.568Z,20.79
2019-02-02T21:06:32.013Z,20.79
2019-02-02T21:11:37.356Z,20.71
2019-02-02T21:16:43.547Z,20.67
2019-02-02T21:21:49.608Z,20.75
2019-02-02T21:26:55.461Z,20.75
2019-02-02T21:32:00.751Z,20.67
2019-02-02T21:37:06.219Z,20.65
2019-02-02T21:42:11.468Z,20.63
2019-02-02T21:47:17.316Z,20.64
2019-02-02T21:52:22.218Z,20.59
2019-02-02T21:57:26.850Z,20.59
2019-02-02T22:02:32.931Z,20.59
2019-02-02T22:07:43.723Z,20.46
2019-02-02T22:12:48.314Z,20.52
2019-02-02T22:17:52.877Z,20.57
2019-02-02T22:22:57.299Z,20.56
2019-02-02T22:28:01.872Z,20.41
2019-02-02T22:33:05.969Z,20.41
2019-02-02T22:38:09.829Z,20.59
2019-02-02T22:43:13.670Z,20.64
2019-02-02T22:48:17.707Z,20.71
2019-02-02T22:53:21.535Z,20.71
2019-02-02T22:58:25.402Z,20.77
2019-02-02T23:04:16.641Z,20.79
2019-02-02T23:09:55.155Z,20.73
2019-02-02T23:15:28.991Z,20.79
2019-02-02T23:20:32.776Z,20.79
2019-02-02T23:25:36.742Z,20.80
2019-02-02T23:30:40.520Z,20.76
2019-02-02T23:35:44.310Z,20.80
2019-02-02T23:40:48.595Z,20.73
2019-02-02T23:45:52.388Z,20.73
2019-02-02T23:50:56.176Z,20.77
2019-02-02T23:55:59.988Z,20.77
